sensor_id;sensor_type;location;lat;lon;timestamp;temperature;humidity
59660;DHT22;45534;52.690;6.268;2023-06-24T00:01:24;16.60;99.90
59660;DHT22;45534;52.690;6.268;2023-06-24T00:03:50;16.60;99.90
59660;DHT22;45534;52.690;6.268;2023-06-24T00:06:19;16.50;99.90
59660;DHT22;45534;52.690;6.268;2023-06-24T00:08:50;16.50;99.90
59660;DHT22;45534;52.690;6.268;2023-06-24T00:11:16;16.40;99.90
59660;DHT22;45534;52.690;6.268;2023-06-24T00:13:43;16.40;99.90
59660;DHT22;45534;52.690;6.268;2023-06-24T00:16:09;16.40;99.90
59660;DHT22;45534;52.690;6.268;2023-06-24T00:18:36;16.40;99.90
59660;DHT22;45534;52.690;6.268;2023-06-24T00:21:03;16.30;99.90
59660;DHT22;45534;52.690;6.268;2023-06-24T00:23:29;16.30;99.90
59660;DHT22;45534;52.690;6.268;2023-06-24T00:26:00;16.30;99.90
59660;DHT22;45534;52.690;6.268;2023-06-24T00:28:26;16.30;99.90
59660;DHT22;45534;52.690;6.268;2023-06-24T00:30:52;16.20;99.90
59660;DHT22;45534;52.690;6.268;2023-06-24T00:33:18;16.20;99.90
59660;DHT22;45534;52.690;6.268;2023-06-24T00:35:46;16.20;99.90
59660;DHT22;45534;52.690;6.268;2023-06-24T00:38:12;16.20;99.90
59660;DHT22;45534;52.690;6.268;2023-06-24T00:40:38;16.10;99.90
59660;DHT22;45534;52.690;6.268;2023-06-24T00:43:05;16.20;99.90
59660;DHT22;45534;52.690;6.268;2023-06-24T00:45:31;16.20;99.90
59660;DHT22;45534;52.690;6.268;2023-06-24T00:47:58;16.30;99.90
59660;DHT22;45534;52.690;6.268;2023-06-24T00:50:24;16.30;99.90
59660;DHT22;45534;52.690;6.268;2023-06-24T00:52:50;16.30;99.90
59660;DHT22;45534;52.690;6.268;2023-06-24T00:55:16;16.30;99.90
59660;DHT22;45534;52.690;6.268;2023-06-24T00:57:47;16.30;99.90
59660;DHT22;45534;52.690;6.268;2023-06-24T01:00:20;16.30;99.90
59660;DHT22;45534;52.690;6.268;2023-06-24T01:02:48;16.30;99.90
59660;DHT22;45534;52.690;6.268;2023-06-24T01:05:14;16.30;99.90
59660;DHT22;45534;52.690;6.268;2023-06-24T01:07:41;16.30;99.90
59660;DHT22;45534;52.690;6.268;2023-06-24T01:10:08;16.30;99.90
59660;DHT22;45534;52.690;6.268;2023-06-24T01:12:36;16.20;99.90
59660;DHT22;45534;52.690;6.268;2023-06-24T01:15:05;16.20;99.90
59660;DHT22;45534;52.690;6.268;2023-06-24T01:27:57;15.90;99.90
59660;DHT22;45534;52.690;6.268;2023-06-24T01:33:50;15.80;99.90
59660;DHT22;45534;52.690;6.268;2023-06-24T01:36:18;15.80;99.90
59660;DHT22;45534;52.690;6.268;2023-06-24T01:38:51;15.80;99.90
59660;DHT22;45534;52.690;6.268;2023-06-24T01:41:22;15.80;99.90
59660;DHT22;45534;52.690;6.268;2023-06-24T01:43:53;15.80;99.90
59660;DHT22;45534;52.690;6.268;2023-06-24T01:46:25;15.80;99.90
59660;DHT22;45534;52.690;6.268;2023-06-24T01:48:54;15.80;99.90
59660;DHT22;45534;52.690;6.268;2023-06-24T01:51:22;15.70;99.90
59660;DHT22;45534;52.690;6.268;2023-06-24T01:53:52;15.70;99.90
59660;DHT22;45534;52.690;6.268;2023-06-24T01:56:21;15.70;99.90
59660;DHT22;45534;52.690;6.268;2023-06-24T01:58:50;15.70;99.90
59660;DHT22;45534;52.690;6.268;2023-06-24T02:01:17;15.70;99.90
59660;DHT22;45534;52.690;6.268;2023-06-24T02:03:43;15.70;99.90
59660;DHT22;45534;52.690;6.268;2023-06-24T02:06:09;15.60;99.90
59660;DHT22;45534;52.690;6.268;2023-06-24T02:08:38;15.50;99.90
59660;DHT22;45534;52.690;6.268;2023-06-24T02:11:06;15.50;99.90
59660;DHT22;45534;52.690;6.268;2023-06-24T02:13:33;15.50;99.90
59660;DHT22;45534;52.690;6.268;2023-06-24T02:16:03;15.50;99.90
59660;DHT22;45534;52.690;6.268;2023-06-24T02:18:29;15.40;99.90
59660;DHT22;45534;52.690;6.268;2023-06-24T02:20:56;15.40;99.90
59660;DHT22;45534;52.690;6.268;2023-06-24T02:23:22;15.30;99.90
59660;DHT22;45534;52.690;6.268;2023-06-24T02:25:49;15.30;99.90
59660;DHT22;45534;52.690;6.268;2023-06-24T02:28:17;15.30;99.90
59660;DHT22;45534;52.690;6.268;2023-06-24T02:30:44;15.30;99.90
59660;DHT22;45534;52.690;6.268;2023-06-24T02:33:10;15.30;99.90
59660;DHT22;45534;52.690;6.268;2023-06-24T02:35:37;15.30;99.90
59660;DHT22;45534;52.690;6.268;2023-06-24T02:38:03;15.30;99.90
59660;DHT22;45534;52.690;6.268;2023-06-24T02:40:29;15.30;99.90
59660;DHT22;45534;52.690;6.268;2023-06-24T02:42:56;15.30;99.90
59660;DHT22;45534;52.690;6.268;2023-06-24T02:45:22;15.30;99.90
59660;DHT22;45534;52.690;6.268;2023-06-24T02:47:48;15.30;99.90
59660;DHT22;45534;52.690;6.268;2023-06-24T02:50:15;15.30;99.90
59660;DHT22;45534;52.690;6.268;2023-06-24T02:52:41;15.20;99.90
59660;DHT22;45534;52.690;6.268;2023-06-24T02:55:08;15.20;99.90
59660;DHT22;45534;52.690;6.268;2023-06-24T02:57:35;15.20;99.90
59660;DHT22;45534;52.690;6.268;2023-06-24T03:00:03;15.20;99.90
59660;DHT22;45534;52.690;6.268;2023-06-24T03:02:31;15.10;99.90
59660;DHT22;45534;52.690;6.268;2023-06-24T03:04:58;15.10;99.90
59660;DHT22;45534;52.690;6.268;2023-06-24T03:07:27;15.10;99.90
59660;DHT22;45534;52.690;6.268;2023-06-24T03:09:53;15.10;99.90
59660;DHT22;45534;52.690;6.268;2023-06-24T03:12:19;15.00;99.90
59660;DHT22;45534;52.690;6.268;2023-06-24T03:14:44;15.10;99.90
59660;DHT22;45534;52.690;6.268;2023-06-24T03:17:10;15.10;99.90
59660;DHT22;45534;52.690;6.268;2023-06-24T03:19:36;15.00;99.90
59660;DHT22;45534;52.690;6.268;2023-06-24T03:22:03;15.10;99.90
59660;DHT22;45534;52.690;6.268;2023-06-24T03:24:29;15.10;99.90
59660;DHT22;45534;52.690;6.268;2023-06-24T03:26:56;15.00;99.90
59660;DHT22;45534;52.690;6.268;2023-06-24T03:29:22;15.00;99.90
59660;DHT22;45534;52.690;6.268;2023-06-24T03:31:48;15.10;99.90
59660;DHT22;45534;52.690;6.268;2023-06-24T03:34:14;15.10;99.90
59660;DHT22;45534;52.690;6.268;2023-06-24T03:36:42;15.10;99.90
59660;DHT22;45534;52.690;6.268;2023-06-24T03:39:08;15.10;99.90
59660;DHT22;45534;52.690;6.268;2023-06-24T03:41:33;15.10;99.90
59660;DHT22;45534;52.690;6.268;2023-06-24T03:43:59;15.10;99.90
59660;DHT22;45534;52.690;6.268;2023-06-24T03:46:25;15.10;99.90
59660;DHT22;45534;52.690;6.268;2023-06-24T03:48:51;15.10;99.90
59660;DHT22;45534;52.690;6.268;2023-06-24T03:51:16;15.10;99.90
59660;DHT22;45534;52.690;6.268;2023-06-24T03:53:42;15.10;99.90
59660;DHT22;45534;52.690;6.268;2023-06-24T03:56:08;15.20;99.90
59660;DHT22;45534;52.690;6.268;2023-06-24T03:58:34;15.20;99.90
59660;DHT22;45534;52.690;6.268;2023-06-24T04:01:01;15.20;99.90
59660;DHT22;45534;52.690;6.268;2023-06-24T04:03:27;15.20;99.90
59660;DHT22;45534;52.690;6.268;2023-06-24T04:05:55;15.20;99.90
59660;DHT22;45534;52.690;6.268;2023-06-24T04:08:21;15.30;99.90
59660;DHT22;45534;52.690;6.268;2023-06-24T04:10:47;15.30;99.90
59660;DHT22;45534;52.690;6.268;2023-06-24T04:13:12;15.30;99.90
59660;DHT22;45534;52.690;6.268;2023-06-24T04:15:38;15.30;99.90
59660;DHT22;45534;52.690;6.268;2023-06-24T04:18:04;15.30;99.90
59660;DHT22;45534;52.690;6.268;2023-06-24T04:20:30;15.30;99.90
59660;DHT22;45534;52.690;6.268;2023-06-24T04:22:55;15.30;99.90
59660;DHT22;45534;52.690;6.268;2023-06-24T04:25:23;15.40;99.90
59660;DHT22;45534;52.690;6.268;2023-06-24T04:27:49;15.40;99.90
59660;DHT22;45534;52.690;6.268;2023-06-24T04:30:15;15.50;99.90
59660;DHT22;45534;52.690;6.268;2023-06-24T04:32:40;15.50;99.90
59660;DHT22;45534;52.690;6.268;2023-06-24T04:35:06;15.60;99.90
59660;DHT22;45534;52.690;6.268;2023-06-24T04:37:32;15.60;99.90
59660;DHT22;45534;52.690;6.268;2023-06-24T04:39:58;15.60;99.90
59660;DHT22;45534;52.690;6.268;2023-06-24T04:42:24;15.60;99.90
59660;DHT22;45534;52.690;6.268;2023-06-24T04:44:50;15.70;99.90
59660;DHT22;45534;52.690;6.268;2023-06-24T04:47:18;15.70;99.90
59660;DHT22;45534;52.690;6.268;2023-06-24T04:49:44;15.80;99.90
59660;DHT22;45534;52.690;6.268;2023-06-24T04:52:11;15.80;99.90
59660;DHT22;45534;52.690;6.268;2023-06-24T04:54:37;15.90;99.90
59660;DHT22;45534;52.690;6.268;2023-06-24T04:57:09;15.90;99.90
59660;DHT22;45534;52.690;6.268;2023-06-24T04:59:35;16.00;99.90
59660;DHT22;45534;52.690;6.268;2023-06-24T05:02:03;16.10;99.90
59660;DHT22;45534;52.690;6.268;2023-06-24T05:04:29;16.10;99.90
59660;DHT22;45534;52.690;6.268;2023-06-24T05:06:55;16.20;99.90
59660;DHT22;45534;52.690;6.268;2023-06-24T05:09:20;16.20;99.90
59660;DHT22;45534;52.690;6.268;2023-06-24T05:11:46;16.30;99.90
59660;DHT22;45534;52.690;6.268;2023-06-24T05:14:11;16.40;99.90
59660;DHT22;45534;52.690;6.268;2023-06-24T05:16:37;16.50;99.90
59660;DHT22;45534;52.690;6.268;2023-06-24T05:19:03;16.50;99.90
59660;DHT22;45534;52.690;6.268;2023-06-24T05:21:28;16.60;99.90
59660;DHT22;45534;52.690;6.268;2023-06-24T05:23:54;16.80;99.90
59660;DHT22;45534;52.690;6.268;2023-06-24T05:26:20;16.90;99.90
59660;DHT22;45534;52.690;6.268;2023-06-24T05:28:45;17.00;99.90
59660;DHT22;45534;52.690;6.268;2023-06-24T05:31:11;17.10;99.90
59660;DHT22;45534;52.690;6.268;2023-06-24T05:33:36;17.10;99.90
59660;DHT22;45534;52.690;6.268;2023-06-24T05:36:02;17.20;99.90
59660;DHT22;45534;52.690;6.268;2023-06-24T05:38:28;17.30;99.90
59660;DHT22;45534;52.690;6.268;2023-06-24T05:40:54;17.40;99.90
59660;DHT22;45534;52.690;6.268;2023-06-24T05:43:19;17.40;99.90
59660;DHT22;45534;52.690;6.268;2023-06-24T05:45:45;17.50;99.90
59660;DHT22;45534;52.690;6.268;2023-06-24T05:48:10;17.50;99.90
59660;DHT22;45534;52.690;6.268;2023-06-24T05:50:36;17.60;99.90
59660;DHT22;45534;52.690;6.268;2023-06-24T05:53:02;17.70;99.90
59660;DHT22;45534;52.690;6.268;2023-06-24T05:55:27;17.70;99.90
59660;DHT22;45534;52.690;6.268;2023-06-24T05:57:53;17.80;99.90
59660;DHT22;45534;52.690;6.268;2023-06-24T06:00:19;18.00;99.90
59660;DHT22;45534;52.690;6.268;2023-06-24T06:02:45;18.10;99.90
59660;DHT22;45534;52.690;6.268;2023-06-24T06:05:10;18.20;99.90
59660;DHT22;45534;52.690;6.268;2023-06-24T06:07:36;18.30;99.90
59660;DHT22;45534;52.690;6.268;2023-06-24T06:10:05;18.40;99.90
59660;DHT22;45534;52.690;6.268;2023-06-24T06:12:32;18.50;99.90
59660;DHT22;45534;52.690;6.268;2023-06-24T06:14:57;18.70;99.90
59660;DHT22;45534;52.690;6.268;2023-06-24T06:17:23;18.70;99.90
59660;DHT22;45534;52.690;6.268;2023-06-24T06:19:49;18.90;99.90
59660;DHT22;45534;52.690;6.268;2023-06-24T06:22:17;18.90;99.90
59660;DHT22;45534;52.690;6.268;2023-06-24T06:24:43;19.00;99.90
59660;DHT22;45534;52.690;6.268;2023-06-24T06:27:10;19.10;99.90
59660;DHT22;45534;52.690;6.268;2023-06-24T06:29:36;19.20;99.90
59660;DHT22;45534;52.690;6.268;2023-06-24T06:32:02;19.40;99.90
59660;DHT22;45534;52.690;6.268;2023-06-24T06:34:27;19.50;99.90
59660;DHT22;45534;52.690;6.268;2023-06-24T06:36:53;19.60;99.90
59660;DHT22;45534;52.690;6.268;2023-06-24T06:39:22;19.70;99.90
59660;DHT22;45534;52.690;6.268;2023-06-24T06:41:48;19.90;99.90
59660;DHT22;45534;52.690;6.268;2023-06-24T06:44:13;20.00;99.90
59660;DHT22;45534;52.690;6.268;2023-06-24T06:46:39;20.20;99.90
59660;DHT22;45534;52.690;6.268;2023-06-24T06:49:04;20.30;99.90
59660;DHT22;45534;52.690;6.268;2023-06-24T06:51:30;20.40;99.90
59660;DHT22;45534;52.690;6.268;2023-06-24T06:53:56;20.50;99.90
59660;DHT22;45534;52.690;6.268;2023-06-24T06:56:25;20.80;99.90
59660;DHT22;45534;52.690;6.268;2023-06-24T06:58:51;20.90;99.90
59660;DHT22;45534;52.690;6.268;2023-06-24T07:01:18;21.10;99.90
59660;DHT22;45534;52.690;6.268;2023-06-24T07:03:44;21.30;99.90
59660;DHT22;45534;52.690;6.268;2023-06-24T07:06:10;21.50;99.90
59660;DHT22;45534;52.690;6.268;2023-06-24T07:08:35;21.70;99.90
59660;DHT22;45534;52.690;6.268;2023-06-24T07:11:04;21.70;99.90
59660;DHT22;45534;52.690;6.268;2023-06-24T07:13:30;21.60;99.90
59660;DHT22;45534;52.690;6.268;2023-06-24T07:15:55;21.60;99.90
59660;DHT22;45534;52.690;6.268;2023-06-24T07:18:21;21.50;99.90
59660;DHT22;45534;52.690;6.268;2023-06-24T07:20:47;21.60;99.90
59660;DHT22;45534;52.690;6.268;2023-06-24T07:23:12;21.70;99.90
59660;DHT22;45534;52.690;6.268;2023-06-24T07:25:38;21.90;99.90
59660;DHT22;45534;52.690;6.268;2023-06-24T07:28:04;22.00;99.90
59660;DHT22;45534;52.690;6.268;2023-06-24T07:30:29;22.40;99.90
59660;DHT22;45534;52.690;6.268;2023-06-24T07:32:55;22.60;99.90
59660;DHT22;45534;52.690;6.268;2023-06-24T07:35:21;22.90;99.90
59660;DHT22;45534;52.690;6.268;2023-06-24T07:37:47;23.10;99.90
59660;DHT22;45534;52.690;6.268;2023-06-24T07:40:12;23.20;99.90
59660;DHT22;45534;52.690;6.268;2023-06-24T07:42:38;23.20;99.90
59660;DHT22;45534;52.690;6.268;2023-06-24T07:45:04;23.10;99.90
59660;DHT22;45534;52.690;6.268;2023-06-24T07:47:30;23.10;99.90
59660;DHT22;45534;52.690;6.268;2023-06-24T07:49:57;23.10;99.90
59660;DHT22;45534;52.690;6.268;2023-06-24T07:52:23;23.10;99.90
59660;DHT22;45534;52.690;6.268;2023-06-24T07:54:49;23.10;99.90
59660;DHT22;45534;52.690;6.268;2023-06-24T07:57:21;23.10;99.90
59660;DHT22;45534;52.690;6.268;2023-06-24T07:59:47;23.20;99.90
59660;DHT22;45534;52.690;6.268;2023-06-24T08:02:12;23.20;99.90
59660;DHT22;45534;52.690;6.268;2023-06-24T08:04:38;23.30;99.90
59660;DHT22;45534;52.690;6.268;2023-06-24T08:07:04;23.30;99.90
59660;DHT22;45534;52.690;6.268;2023-06-24T08:09:30;23.30;99.90
59660;DHT22;45534;52.690;6.268;2023-06-24T08:11:56;23.40;99.90
59660;DHT22;45534;52.690;6.268;2023-06-24T08:14:21;23.40;99.90
59660;DHT22;45534;52.690;6.268;2023-06-24T08:16:47;23.50;99.90
59660;DHT22;45534;52.690;6.268;2023-06-24T08:19:13;23.50;99.90
59660;DHT22;45534;52.690;6.268;2023-06-24T08:21:39;23.60;99.90
59660;DHT22;45534;52.690;6.268;2023-06-24T08:24:06;23.70;99.90
59660;DHT22;45534;52.690;6.268;2023-06-24T08:26:32;23.80;99.90
59660;DHT22;45534;52.690;6.268;2023-06-24T08:28:58;23.80;99.90
59660;DHT22;45534;52.690;6.268;2023-06-24T08:31:25;23.80;99.00
59660;DHT22;45534;52.690;6.268;2023-06-24T08:33:54;23.80;98.30
59660;DHT22;45534;52.690;6.268;2023-06-24T08:36:23;23.80;97.10
59660;DHT22;45534;52.690;6.268;2023-06-24T08:38:49;23.90;97.60
59660;DHT22;45534;52.690;6.268;2023-06-24T08:41:15;24.00;97.60
59660;DHT22;45534;52.690;6.268;2023-06-24T08:43:40;24.20;96.90
59660;DHT22;45534;52.690;6.268;2023-06-24T08:46:08;24.30;97.20
59660;DHT22;45534;52.690;6.268;2023-06-24T08:48:35;24.40;95.30
59660;DHT22;45534;52.690;6.268;2023-06-24T08:51:08;24.60;94.80
59660;DHT22;45534;52.690;6.268;2023-06-24T08:53:36;24.70;94.30
59660;DHT22;45534;52.690;6.268;2023-06-24T08:56:03;24.80;92.30
59660;DHT22;45534;52.690;6.268;2023-06-24T08:58:29;24.80;84.30
59660;DHT22;45534;52.690;6.268;2023-06-24T09:00:55;24.90;88.50
59660;DHT22;45534;52.690;6.268;2023-06-24T09:03:22;25.00;80.50
59660;DHT22;45534;52.690;6.268;2023-06-24T09:05:47;25.00;78.40
59660;DHT22;45534;52.690;6.268;2023-06-24T09:08:14;25.00;80.20
59660;DHT22;45534;52.690;6.268;2023-06-24T09:10:41;25.20;79.30
59660;DHT22;45534;52.690;6.268;2023-06-24T09:13:07;25.40;79.10
59660;DHT22;45534;52.690;6.268;2023-06-24T09:15:37;25.60;79.30
59660;DHT22;45534;52.690;6.268;2023-06-24T09:18:04;25.70;79.40
59660;DHT22;45534;52.690;6.268;2023-06-24T09:20:31;25.80;79.70
59660;DHT22;45534;52.690;6.268;2023-06-24T09:23:03;25.80;80.50
59660;DHT22;45534;52.690;6.268;2023-06-24T09:25:30;25.60;81.50
59660;DHT22;45534;52.690;6.268;2023-06-24T09:28:03;25.80;86.40
59660;DHT22;45534;52.690;6.268;2023-06-24T09:30:29;26.10;82.50
59660;DHT22;45534;52.690;6.268;2023-06-24T09:32:55;26.30;81.30
59660;DHT22;45534;52.690;6.268;2023-06-24T09:35:23;26.40;79.10
59660;DHT22;45534;52.690;6.268;2023-06-24T09:37:50;26.50;78.00
59660;DHT22;45534;52.690;6.268;2023-06-24T09:40:17;26.50;77.60
59660;DHT22;45534;52.690;6.268;2023-06-24T09:42:56;26.50;77.80
59660;DHT22;45534;52.690;6.268;2023-06-24T09:45:24;26.60;77.90
59660;DHT22;45534;52.690;6.268;2023-06-24T09:47:50;26.50;78.00
59660;DHT22;45534;52.690;6.268;2023-06-24T09:50:16;26.40;78.20
59660;DHT22;45534;52.690;6.268;2023-06-24T09:52:44;26.30;79.30
59660;DHT22;45534;52.690;6.268;2023-06-24T09:55:12;26.20;83.30
59660;DHT22;45534;52.690;6.268;2023-06-24T09:57:39;26.30;84.10
59660;DHT22;45534;52.690;6.268;2023-06-24T10:00:06;26.50;82.70
59660;DHT22;45534;52.690;6.268;2023-06-24T10:02:33;26.80;82.70
59660;DHT22;45534;52.690;6.268;2023-06-24T10:04:59;27.10;82.10
59660;DHT22;45534;52.690;6.268;2023-06-24T10:07:26;27.30;80.20
59660;DHT22;45534;52.690;6.268;2023-06-24T10:09:53;27.40;78.70
59660;DHT22;45534;52.690;6.268;2023-06-24T10:12:19;27.40;76.90
59660;DHT22;45534;52.690;6.268;2023-06-24T10:14:45;27.40;77.30
59660;DHT22;45534;52.690;6.268;2023-06-24T10:17:11;27.50;77.90
59660;DHT22;45534;52.690;6.268;2023-06-24T10:19:41;27.60;77.50
59660;DHT22;45534;52.690;6.268;2023-06-24T10:22:08;27.60;76.70
59660;DHT22;45534;52.690;6.268;2023-06-24T10:24:40;27.70;77.00
59660;DHT22;45534;52.690;6.268;2023-06-24T10:27:18;27.80;76.60
59660;DHT22;45534;52.690;6.268;2023-06-24T10:29:48;27.90;76.10
59660;DHT22;45534;52.690;6.268;2023-06-24T10:32:15;28.00;75.50
59660;DHT22;45534;52.690;6.268;2023-06-24T10:34:42;28.00;74.60
59660;DHT22;45534;52.690;6.268;2023-06-24T10:37:22;28.00;74.00
59660;DHT22;45534;52.690;6.268;2023-06-24T10:39:56;28.00;73.70
59660;DHT22;45534;52.690;6.268;2023-06-24T10:42:42;27.90;74.80
59660;DHT22;45534;52.690;6.268;2023-06-24T10:47:43;28.10;75.80
59660;DHT22;45534;52.690;6.268;2023-06-24T10:50:10;28.20;74.50
59660;DHT22;45534;52.690;6.268;2023-06-24T10:52:45;28.30;74.80
59660;DHT22;45534;52.690;6.268;2023-06-24T10:55:14;28.50;75.00
59660;DHT22;45534;52.690;6.268;2023-06-24T10:57:40;28.60;74.50
59660;DHT22;45534;52.690;6.268;2023-06-24T11:00:10;28.70;73.70
59660;DHT22;45534;52.690;6.268;2023-06-24T11:02:36;28.90;72.60
59660;DHT22;45534;52.690;6.268;2023-06-24T11:05:03;29.00;71.70
59660;DHT22;45534;52.690;6.268;2023-06-24T11:07:31;29.10;70.90
59660;DHT22;45534;52.690;6.268;2023-06-24T11:10:09;29.10;68.30
59660;DHT22;45534;52.690;6.268;2023-06-24T11:12:37;28.80;66.00
59660;DHT22;45534;52.690;6.268;2023-06-24T11:15:07;28.50;66.70
59660;DHT22;45534;52.690;6.268;2023-06-24T11:17:34;28.50;67.90
59660;DHT22;45534;52.690;6.268;2023-06-24T11:20:01;28.60;68.80
59660;DHT22;45534;52.690;6.268;2023-06-24T11:22:27;28.80;68.40
59660;DHT22;45534;52.690;6.268;2023-06-24T11:24:54;29.00;68.10
59660;DHT22;45534;52.690;6.268;2023-06-24T11:27:30;29.10;65.90
59660;DHT22;45534;52.690;6.268;2023-06-24T11:29:58;29.30;65.00
59660;DHT22;45534;52.690;6.268;2023-06-24T11:32:34;29.40;64.20
59660;DHT22;45534;52.690;6.268;2023-06-24T11:34:59;29.50;64.40
59660;DHT22;45534;52.690;6.268;2023-06-24T11:37:31;29.70;64.00
59660;DHT22;45534;52.690;6.268;2023-06-24T11:40:05;30.00;62.70
59660;DHT22;45534;52.690;6.268;2023-06-24T11:42:39;30.00;62.90
59660;DHT22;45534;52.690;6.268;2023-06-24T11:45:07;30.20;62.60
59660;DHT22;45534;52.690;6.268;2023-06-24T11:47:34;30.30;62.40
59660;DHT22;45534;52.690;6.268;2023-06-24T11:50:02;30.30;61.40
59660;DHT22;45534;52.690;6.268;2023-06-24T11:52:42;30.30;61.30
59660;DHT22;45534;52.690;6.268;2023-06-24T11:55:20;30.50;61.70
59660;DHT22;45534;52.690;6.268;2023-06-24T11:58:02;30.70;60.80
59660;DHT22;45534;52.690;6.268;2023-06-24T12:00:42;30.70;61.30
59660;DHT22;45534;52.690;6.268;2023-06-24T12:03:10;30.40;59.30
59660;DHT22;45534;52.690;6.268;2023-06-24T12:05:36;30.10;59.40
59660;DHT22;45534;52.690;6.268;2023-06-24T12:08:06;30.00;60.20
59660;DHT22;45534;52.690;6.268;2023-06-24T12:10:33;30.10;59.00
59660;DHT22;45534;52.690;6.268;2023-06-24T12:13:01;30.30;59.30
59660;DHT22;45534;52.690;6.268;2023-06-24T12:15:27;30.50;59.00
59660;DHT22;45534;52.690;6.268;2023-06-24T12:17:53;30.70;58.40
59660;DHT22;45534;52.690;6.268;2023-06-24T12:20:20;30.70;59.50
59660;DHT22;45534;52.690;6.268;2023-06-24T12:22:47;30.90;60.10
59660;DHT22;45534;52.690;6.268;2023-06-24T12:25:14;30.90;59.30
59660;DHT22;45534;52.690;6.268;2023-06-24T12:27:42;30.70;58.80
59660;DHT22;45534;52.690;6.268;2023-06-24T12:30:08;30.50;58.90
59660;DHT22;45534;52.690;6.268;2023-06-24T12:32:34;30.20;59.10
59660;DHT22;45534;52.690;6.268;2023-06-24T12:34:59;30.00;59.60
59660;DHT22;45534;52.690;6.268;2023-06-24T12:37:25;29.80;60.10
59660;DHT22;45534;52.690;6.268;2023-06-24T12:39:51;29.50;60.50
59660;DHT22;45534;52.690;6.268;2023-06-24T12:42:17;29.20;61.80
59660;DHT22;45534;52.690;6.268;2023-06-24T12:44:43;29.00;62.50
59660;DHT22;45534;52.690;6.268;2023-06-24T12:47:09;29.00;62.60
59660;DHT22;45534;52.690;6.268;2023-06-24T12:49:34;29.00;62.70
59660;DHT22;45534;52.690;6.268;2023-06-24T12:52:01;29.00;64.10
59660;DHT22;45534;52.690;6.268;2023-06-24T12:54:27;29.30;63.70
59660;DHT22;45534;52.690;6.268;2023-06-24T12:56:53;29.70;62.50
59660;DHT22;45534;52.690;6.268;2023-06-24T12:59:18;30.10;61.20
59660;DHT22;45534;52.690;6.268;2023-06-24T13:01:44;30.50;60.90
59660;DHT22;45534;52.690;6.268;2023-06-24T13:04:11;30.70;60.20
59660;DHT22;45534;52.690;6.268;2023-06-24T13:06:36;30.90;59.90
59660;DHT22;45534;52.690;6.268;2023-06-24T13:09:02;31.00;59.50
59660;DHT22;45534;52.690;6.268;2023-06-24T13:11:28;31.10;59.50
59660;DHT22;45534;52.690;6.268;2023-06-24T13:13:54;31.10;59.10
59660;DHT22;45534;52.690;6.268;2023-06-24T13:16:20;31.40;59.40
59660;DHT22;45534;52.690;6.268;2023-06-24T13:18:46;31.50;58.10
59660;DHT22;45534;52.690;6.268;2023-06-24T13:21:12;31.40;57.10
59660;DHT22;45534;52.690;6.268;2023-06-24T13:23:39;31.10;56.40
59660;DHT22;45534;52.690;6.268;2023-06-24T13:26:06;31.10;58.00
59660;DHT22;45534;52.690;6.268;2023-06-24T13:28:31;31.30;58.40
59660;DHT22;45534;52.690;6.268;2023-06-24T13:30:58;31.70;57.50
59660;DHT22;45534;52.690;6.268;2023-06-24T13:33:23;31.90;56.40
59660;DHT22;45534;52.690;6.268;2023-06-24T13:35:51;32.10;56.20
59660;DHT22;45534;52.690;6.268;2023-06-24T13:38:16;32.20;55.50
59660;DHT22;45534;52.690;6.268;2023-06-24T13:40:42;32.30;55.00
59660;DHT22;45534;52.690;6.268;2023-06-24T13:43:08;32.30;54.00
59660;DHT22;45534;52.690;6.268;2023-06-24T13:45:36;32.30;54.20
59660;DHT22;45534;52.690;6.268;2023-06-24T13:48:02;32.40;54.10
59660;DHT22;45534;52.690;6.268;2023-06-24T13:50:28;32.60;54.00
59660;DHT22;45534;52.690;6.268;2023-06-24T13:52:55;32.60;53.90
59660;DHT22;45534;52.690;6.268;2023-06-24T13:55:21;32.60;53.30
59660;DHT22;45534;52.690;6.268;2023-06-24T13:57:47;32.70;53.40
59660;DHT22;45534;52.690;6.268;2023-06-24T14:00:13;32.80;52.90
59660;DHT22;45534;52.690;6.268;2023-06-24T14:02:40;32.80;53.00
59660;DHT22;45534;52.690;6.268;2023-06-24T14:05:06;32.80;52.20
59660;DHT22;45534;52.690;6.268;2023-06-24T14:07:33;32.90;52.00
59660;DHT22;45534;52.690;6.268;2023-06-24T14:09:59;33.00;52.00
59660;DHT22;45534;52.690;6.268;2023-06-24T14:12:25;33.20;51.80
59660;DHT22;45534;52.690;6.268;2023-06-24T14:14:51;33.50;50.90
59660;DHT22;45534;52.690;6.268;2023-06-24T14:17:17;33.60;50.60
59660;DHT22;45534;52.690;6.268;2023-06-24T14:19:42;33.70;51.00
59660;DHT22;45534;52.690;6.268;2023-06-24T14:22:08;33.70;50.20
59660;DHT22;45534;52.690;6.268;2023-06-24T14:24:35;33.60;50.10
59660;DHT22;45534;52.690;6.268;2023-06-24T14:27:01;33.80;50.60
59660;DHT22;45534;52.690;6.268;2023-06-24T14:29:27;34.00;50.00
59660;DHT22;45534;52.690;6.268;2023-06-24T14:31:52;34.10;50.40
59660;DHT22;45534;52.690;6.268;2023-06-24T14:34:18;34.30;49.70
59660;DHT22;45534;52.690;6.268;2023-06-24T14:36:44;34.30;49.00
59660;DHT22;45534;52.690;6.268;2023-06-24T14:39:14;34.10;49.30
59660;DHT22;45534;52.690;6.268;2023-06-24T14:41:40;34.10;49.50
59660;DHT22;45534;52.690;6.268;2023-06-24T14:44:06;34.20;49.80
59660;DHT22;45534;52.690;6.268;2023-06-24T14:46:31;34.00;48.80
59660;DHT22;45534;52.690;6.268;2023-06-24T14:48:57;33.90;48.60
59660;DHT22;45534;52.690;6.268;2023-06-24T14:51:24;33.90;47.70
59660;DHT22;45534;52.690;6.268;2023-06-24T14:53:50;33.90;47.40
59660;DHT22;45534;52.690;6.268;2023-06-24T14:56:27;33.90;46.80
59660;DHT22;45534;52.690;6.268;2023-06-24T14:58:53;33.80;46.60
59660;DHT22;45534;52.690;6.268;2023-06-24T15:01:21;33.60;46.60
59660;DHT22;45534;52.690;6.268;2023-06-24T15:03:47;33.40;46.60
59660;DHT22;45534;52.690;6.268;2023-06-24T15:06:13;33.30;46.50
59660;DHT22;45534;52.690;6.268;2023-06-24T15:08:39;33.30;47.10
59660;DHT22;45534;52.690;6.268;2023-06-24T15:11:04;33.20;47.00
59660;DHT22;45534;52.690;6.268;2023-06-24T15:13:30;33.00;47.20
59660;DHT22;45534;52.690;6.268;2023-06-24T15:15:56;32.70;48.10
59660;DHT22;45534;52.690;6.268;2023-06-24T15:18:24;32.30;49.00
59660;DHT22;45534;52.690;6.268;2023-06-24T15:20:50;31.90;49.80
59660;DHT22;45534;52.690;6.268;2023-06-24T15:23:16;31.50;49.80
59660;DHT22;45534;52.690;6.268;2023-06-24T15:25:41;31.30;50.10
59660;DHT22;45534;52.690;6.268;2023-06-24T15:28:07;31.10;50.40
59660;DHT22;45534;52.690;6.268;2023-06-24T15:30:33;31.00;51.00
59660;DHT22;45534;52.690;6.268;2023-06-24T15:32:58;30.90;51.50
59660;DHT22;45534;52.690;6.268;2023-06-24T15:35:24;30.80;52.40
59660;DHT22;45534;52.690;6.268;2023-06-24T15:37:50;30.80;53.60
59660;DHT22;45534;52.690;6.268;2023-06-24T15:40:20;30.90;54.30
59660;DHT22;45534;52.690;6.268;2023-06-24T15:42:49;31.20;54.90
59660;DHT22;45534;52.690;6.268;2023-06-24T15:45:15;31.30;55.20